Time;durP1;ratioP1;P1;durP2;ratioP2;P2;SDS_P1;SDS_P2;PMS_P1;PMS_P2;Temp;Humidity;BMP_temperature;BMP_pressure;BME280_temperature;BME280_humidity;BME280_pressure;Samples;Min_cycle;Max_cycle;Signal;HPM_P1;HPM_P2
2023/12/12 05:04:17;;;;;;;32.00;16.95;;;;;;;0.96;100.00;99861.84;6161201;27;20194;-85
2023/12/12 05:07:20;;;;;;;34.00;16.77;;;;;;;1.15;100.00;99853.19;5376263;33;34656;-87
2023/12/12 05:10:23;;;;;;;29.92;16.33;;;;;;;1.20;100.00;99869.53;5361504;33;35385;-86
2023/12/12 05:13:27;;;;;;;33.88;16.65;;;;;;;1.15;100.00;99872.56;5369512;33;33842;-88
2023/12/12 05:16:30;;;;;;;37.33;18.08;;;;;;;1.06;100.00;99876.00;5369363;33;33729;-86
2023/12/12 05:19:34;;;;;;;33.08;18.05;;;;;;;1.05;100.00;99890.22;5357895;33;33716;-87
2023/12/12 05:22:37;;;;;;;33.33;17.42;;;;;;;1.07;100.00;99896.22;5368718;33;34174;-86
2023/12/12 05:25:40;;;;;;;30.83;17.73;;;;;;;0.88;100.00;99897.78;5368525;33;33946;-87
2023/12/12 05:28:45;;;;;;;36.53;18.05;;;;;;;0.74;100.00;99905.19;5383365;33;34887;-86
2023/12/12 05:31:48;;;;;;;40.70;18.62;;;;;;;0.65;100.00;99904.97;5383642;33;33959;-90
2023/12/12 05:34:52;;;;;;;36.95;17.95;;;;;;;0.60;100.00;99903.66;5346937;33;33873;-92
2023/12/12 05:37:55;;;;;;;29.70;15.50;;;;;;;0.56;100.00;99900.44;5359190;33;33611;-91
2023/12/12 05:40:58;;;;;;;38.15;17.55;;;;;;;0.49;100.00;99901.06;5372977;33;34156;-92
2023/12/12 05:44:01;;;;;;;34.80;16.98;;;;;;;0.43;100.00;99905.03;5369493;33;34626;-89
2023/12/12 05:47:04;;;;;;;34.92;17.62;;;;;;;0.42;100.00;99909.50;5358018;33;33831;-87
2023/12/12 05:50:10;;;;;;;32.58;15.98;;;;;;;0.40;100.00;99907.94;5382885;33;33959;-86
2023/12/12 05:53:13;;;;;;;36.38;18.40;;;;;;;0.36;100.00;99917.94;5377411;33;34204;-86
2023/12/12 05:56:17;;;;;;;34.42;18.25;;;;;;;0.35;100.00;99904.81;5383312;33;34354;-86
2023/12/12 05:59:21;;;;;;;37.88;17.67;;;;;;;0.38;100.00;99918.66;5356064;33;33775;-88
2023/12/12 06:02:24;;;;;;;43.83;18.00;;;;;;;0.40;100.00;99929.12;5387074;33;33732;-86
2023/12/12 06:05:27;;;;;;;36.40;18.40;;;;;;;0.42;100.00;99924.56;5391441;33;33415;-88
2023/12/12 06:08:30;;;;;;;32.33;17.10;;;;;;;0.42;100.00;99935.16;5378607;33;33612;-86
2023/12/12 06:11:34;;;;;;;30.12;15.70;;;;;;;0.43;100.00;99944.75;5357721;33;34104;-86
2023/12/12 06:14:36;;;;;;;35.58;17.83;;;;;;;0.44;100.00;99944.66;5375399;33;34154;-86
2023/12/12 06:17:40;;;;;;;36.55;18.40;;;;;;;0.50;100.00;99945.09;5364791;33;34006;-86
2023/12/12 06:20:43;;;;;;;37.80;18.35;;;;;;;0.53;100.00;99951.00;5366628;33;34809;-88
2023/12/12 06:23:46;;;;;;;37.17;17.33;;;;;;;0.58;100.00;99969.16;5368350;33;33631;-87
2023/12/12 06:26:49;;;;;;;34.25;18.77;;;;;;;0.67;100.00;99958.69;5353880;33;33865;-86
2023/12/12 06:29:53;;;;;;;40.33;19.35;;;;;;;0.72;100.00;99965.41;5364338;33;34341;-87
2023/12/12 06:32:56;;;;;;;33.97;18.05;;;;;;;0.74;100.00;99960.84;5365137;33;33423;-86
2023/12/12 06:35:59;;;;;;;34.03;18.00;;;;;;;0.76;100.00;99969.47;5352302;33;33767;-86
2023/12/12 06:39:03;;;;;;;39.45;20.27;;;;;;;0.81;100.00;99977.91;5380576;33;33426;-86
2023/12/12 06:42:07;;;;;;;33.50;19.70;;;;;;;0.88;100.00;99989.69;5378732;33;34667;-86
2023/12/12 06:45:10;;;;;;;36.58;18.75;;;;;;;0.95;100.00;99984.72;5379082;33;33513;-86
2023/12/12 06:48:13;;;;;;;38.30;19.75;;;;;;;1.09;100.00;99989.75;5366519;33;33871;-86
2023/12/12 06:51:16;;;;;;;36.35;18.02;;;;;;;1.21;100.00;99983.41;5365805;33;33882;-86
2023/12/12 06:54:19;;;;;;;38.30;18.83;;;;;;;1.28;100.00;99989.88;5379096;33;34745;-87
2023/12/12 06:57:22;;;;;;;39.40;20.52;;;;;;;1.29;100.00;99988.09;5366494;33;34134;-86
2023/12/12 07:00:26;;;;;;;38.85;20.12;;;;;;;1.35;100.00;99998.19;5366191;33;34212;-86
2023/12/12 07:03:29;;;;;;;44.72;20.17;;;;;;;1.39;100.00;99996.13;5366317;33;34081;-86
2023/12/12 07:06:33;;;;;;;34.95;18.65;;;;;;;1.46;100.00;99991.97;5365843;33;34577;-86
2023/12/12 07:09:36;;;;;;;42.40;20.67;;;;;;;1.59;100.00;99990.81;5366147;33;33730;-87
2023/12/12 07:12:39;;;;;;;35.60;19.05;;;;;;;1.67;100.00;99987.50;5379522;33;33728;-86
2023/12/12 07:15:59;;;;;;;37.95;20.80;;;;;;;1.82;100.00;99980.06;5368522;33;34422;-87
2023/12/12 07:19:03;;;;;;;38.08;19.02;;;;;;;1.95;100.00;99991.28;5353978;33;33735;-87
2023/12/12 07:22:07;;;;;;;37.90;19.30;;;;;;;2.09;100.00;99999.88;5354767;33;34778;-87
2023/12/12 07:25:10;;;;;;;38.47;19.20;;;;;;;2.18;100.00;100009.72;5370519;33;35217;-86
2023/12/12 07:28:13;;;;;;;37.28;18.40;;;;;;;2.13;100.00;100004.78;5381332;33;34024;-86
2023/12/12 07:31:17;;;;;;;35.55;19.30;;;;;;;2.06;100.00;100008.94;5389755;33;33847;-87
2023/12/12 07:34:21;;;;;;;39.72;19.50;;;;;;;2.27;100.00;100007.09;5382412;33;35458;-89
2023/12/12 07:37:25;;;;;;;34.20;20.00;;;;;;;2.40;100.00;100004.22;5366983;33;35296;-91
2023/12/12 07:40:30;;;;;;;40.63;21.05;;;;;;;2.52;100.00;100014.75;5354242;33;34113;-91
2023/12/12 07:43:34;;;;;;;45.67;21.48;;;;;;;2.65;100.00;100013.50;5378724;33;33653;-87
2023/12/12 07:46:38;;;;;;;45.30;23.85;;;;;;;2.83;100.00;100019.00;5365442;33;33663;-87
2023/12/12 07:49:41;;;;;;;50.92;23.70;;;;;;;2.99;100.00;100007.00;5379105;33;33965;-87
2023/12/12 07:52:44;;;;;;;54.55;25.08;;;;;;;3.11;100.00;100009.38;5354236;33;34126;-87
2023/12/12 07:55:48;;;;;;;56.70;26.77;;;;;;;3.14;100.00;100017.09;5365268;33;34604;-87
2023/12/12 07:58:51;;;;;;;59.53;27.92;;;;;;;3.23;100.00;100028.72;5354525;33;34631;-87
2023/12/12 08:01:54;;;;;;;57.28;27.33;;;;;;;3.19;100.00;100032.66;5350371;33;33472;-87
2023/12/12 08:04:58;;;;;;;44.40;25.12;;;;;;;3.03;100.00;100033.16;5355678;33;33829;-87
2023/12/12 08:08:04;;;;;;;52.40;24.25;;;;;;;2.89;100.00;100045.03;5379839;33;34014;-87
2023/12/12 08:11:14;;;;;;;53.65;26.37;;;;;;;2.87;100.00;100043.50;5367652;33;33489;-87
2023/12/12 08:14:17;;;;;;;;;;;;;;;2.88;100.00;100039.88;5369806;33;33474;-87
2023/12/12 08:17:20;;;;;;;41.78;23.05;;;;;;;2.95;100.00;100036.53;5375648;33;34910;-86
2023/12/12 08:20:23;;;;;;;43.05;23.33;;;;;;;3.07;100.00;100039.03;5403706;33;34819;-86
2023/12/12 08:23:27;;;;;;;48.65;23.42;;;;;;;3.17;100.00;100034.59;5380336;33;34180;-86
2023/12/12 08:26:43;;;;;;;44.22;24.12;;;;;;;3.26;100.00;100030.25;5364412;33;34407;-86
2023/12/12 08:29:48;;;;;;;42.17;22.83;;;;;;;3.30;100.00;100031.66;5377895;33;33766;-86
2023/12/12 08:32:52;;;;;;;51.22;26.00;;;;;;;3.37;100.00;100025.62;5391211;33;34331;-86
2023/12/12 08:35:55;;;;;;;40.08;21.98;;;;;;;3.50;100.00;100016.53;5372794;33;33762;-86
2023/12/12 08:38:59;;;;;;;39.92;22.87;;;;;;;3.65;100.00;100007.13;5371990;33;35310;-86
2023/12/12 08:42:02;;;;;;;40.83;20.67;;;;;;;3.81;100.00;100009.22;5388298;33;35356;-86
2023/12/12 08:45:06;;;;;;;40.25;22.25;;;;;;;4.05;100.00;100017.53;5399015;33;35250;-86
2023/12/12 08:48:09;;;;;;;41.75;21.95;;;;;;;4.53;100.00;100019.19;5357246;33;34673;-87
2023/12/12 08:51:12;;;;;;;39.88;22.33;;;;;;;4.88;100.00;100020.25;5367802;33;33985;-85
2023/12/12 08:54:15;;;;;;;37.05;20.95;;;;;;;5.26;100.00;100017.47;5369175;33;33465;-87
2023/12/12 08:57:19;;;;;;;38.13;21.15;;;;;;;5.27;100.00;100021.84;5377462;33;34146;-84
2023/12/12 09:00:23;;;;;;;41.22;20.45;;;;;;;5.09;100.00;100029.78;5371293;33;34481;-86
2023/12/12 09:03:26;;;;;;;32.60;16.40;;;;;;;4.89;100.00;100024.59;5383825;33;34647;-87
2023/12/12 09:06:30;;;;;;;31.52;15.35;;;;;;;4.82;100.00;100030.69;5366464;33;33694;-84
2023/12/12 09:09:33;;;;;;;31.02;15.10;;;;;;;5.05;100.00;100039.94;5353714;33;34836;-86
2023/12/12 09:12:36;;;;;;;33.00;16.62;;;;;;;5.31;100.00;100039.22;5363737;33;33820;-84
2023/12/12 09:15:39;;;;;;;37.35;19.95;;;;;;;5.62;100.00;100037.00;5366430;33;33992;-84
2023/12/12 09:18:42;;;;;;;40.80;20.08;;;;;;;5.84;100.00;100041.00;5386676;33;33816;-85
2023/12/12 09:21:48;;;;;;;36.25;20.52;;;;;;;6.27;100.00;100037.47;5359501;33;33979;-85
2023/12/12 09:24:51;;;;;;;34.20;18.92;;;;;;;6.31;100.00;100044.16;5392232;33;34211;-85
2023/12/12 09:27:54;;;;;;;40.72;21.50;;;;;;;6.41;100.00;100032.53;5363278;33;34154;-85
2023/12/12 09:30:57;;;;;;;33.50;20.48;;;;;;;6.53;100.00;100032.09;5363856;33;35442;-89
2023/12/12 09:34:00;;;;;;;39.63;20.65;;;;;;;6.49;100.00;100028.06;5367308;33;33794;-89
2023/12/12 09:37:04;;;;;;;40.50;21.23;;;;;;;6.56;100.00;100029.09;5358609;33;32331;-88
2023/12/12 09:40:09;;;;;;;38.15;20.12;;;;;;;6.68;100.00;100026.97;5367541;33;34522;-88
2023/12/12 09:43:14;;;;;;;33.60;18.58;;;;;;;7.00;100.00;100020.06;5378004;33;34049;-84
2023/12/12 09:46:20;;;;;;;32.47;18.02;;;;;;;7.42;100.00;100024.47;5363332;33;34109;-83
2023/12/12 09:49:26;;;;;;;31.40;18.45;;;;;;;7.56;100.00;100021.13;5366469;33;33808;-84
2023/12/12 09:52:29;;;;;;;28.38;16.73;;;;;;;7.60;100.00;100018.94;5353974;33;33517;-84
2023/12/12 09:55:33;;;;;;;30.48;16.73;;;;;;;7.53;100.00;100016.09;5378974;33;34799;-84
2023/12/12 09:58:36;;;;;;;27.62;15.65;;;;;;;7.64;100.00;100020.28;5377891;33;34059;-83
2023/12/12 10:01:42;;;;;;;35.95;17.37;;;;;;;7.64;100.00;100013.09;5367805;33;33818;-84
2023/12/12 10:04:46;;;;;;;28.87;14.75;;;;;;;7.65;100.00;100017.44;5374903;33;33496;-84
2023/12/12 10:07:50;;;;;;;27.15;14.95;;;;;;;7.83;100.00;100017.25;5365196;33;33456;-83
2023/12/12 10:11:09;;;;;;;26.98;14.55;;;;;;;7.86;100.00;100008.88;5369744;33;34608;-84
2023/12/12 10:14:12;;;;;;;21.45;12.13;;;;;;;7.90;100.00;100012.06;5378262;33;33461;-85
2023/12/12 10:17:15;;;;;;;22.85;12.20;;;;;;;7.98;100.00;100012.03;5352430;33;35035;-84
2023/12/12 10:20:25;;;;;;;19.65;10.77;;;;;;;8.27;100.00;100006.13;5365934;33;33388;-84
2023/12/12 10:23:32;;;;;;;23.48;10.02;;;;;;;8.46;100.00;99991.50;5388032;33;33783;-84
2023/12/12 10:26:36;;;;;;;15.77;7.53;;;;;;;8.57;100.00;99993.81;5366739;33;34016;-84
2023/12/12 10:29:39;;;;;;;10.50;5.45;;;;;;;8.58;100.00;99995.47;5346333;33;34144;-83
2023/12/12 10:32:43;;;;;;;12.30;6.00;;;;;;;8.68;100.00;99989.88;5364794;33;34431;-84
2023/12/12 10:35:46;;;;;;;9.20;5.43;;;;;;;8.75;100.00;99979.31;5359556;33;33935;-84
2023/12/12 10:38:49;;;;;;;5.82;3.95;;;;;;;8.88;100.00;99992.97;5353408;33;33704;-84
2023/12/12 10:41:56;;;;;;;11.25;4.78;;;;;;;8.96;100.00;99990.25;5368328;33;34021;-84
2023/12/12 10:45:03;;;;;;;10.02;4.37;;;;;;;9.07;100.00;99991.72;5389282;33;33775;-84
2023/12/12 10:48:12;;;;;;;6.50;3.85;;;;;;;9.20;100.00;99978.50;5381511;33;34025;-83
2023/12/12 10:51:17;;;;;;;8.30;3.33;;;;;;;9.18;100.00;99977.84;5385709;33;34375;-83
2023/12/12 10:54:24;;;;;;;25.52;13.95;;;;;;;9.23;100.00;99978.16;5362576;33;35107;-83
2023/12/12 10:57:29;;;;;;;25.67;13.50;;;;;;;9.00;100.00;99993.41;5365266;33;33498;-83
2023/12/12 11:00:34;;;;;;;21.50;14.02;;;;;;;8.87;100.00;99996.69;5365463;33;34717;-84
2023/12/12 11:03:37;;;;;;;26.50;13.02;;;;;;;8.66;100.00;100009.84;5366772;33;33525;-87
2023/12/12 11:06:45;;;;;;;24.90;12.57;;;;;;;8.73;100.00;100005.47;5377989;33;34104;-84
2023/12/12 11:09:48;;;;;;;20.67;12.45;;;;;;;8.87;100.00;100006.59;5368464;33;33562;-84
2023/12/12 11:12:56;;;;;;;22.17;11.65;;;;;;;9.15;100.00;100017.66;5382793;33;33680;-84
2023/12/12 11:16:01;;;;;;;22.50;11.88;;;;;;;9.35;100.00;100010.81;5378452;33;33975;-84
2023/12/12 11:19:04;;;;;;;22.15;10.23;;;;;;;9.55;100.00;100011.16;5367164;33;33938;-84
2023/12/12 11:22:07;;;;;;;20.65;9.82;;;;;;;9.68;100.00;100007.84;5355418;33;34370;-83
2023/12/12 11:25:19;;;;;;;16.42;9.35;;;;;;;9.83;100.00;100008.75;5388487;33;35129;-84
2023/12/12 11:28:24;;;;;;;18.05;9.52;;;;;;;10.20;100.00;99999.78;5384720;33;33278;-84
2023/12/12 11:31:27;;;;;;;18.30;9.40;;;;;;;10.51;100.00;100001.50;5346955;33;33775;-84
2023/12/12 11:34:37;;;;;;;13.10;7.72;;;;;;;11.01;100.00;99993.63;5363769;33;33671;-84
2023/12/12 11:37:43;;;;;;;16.37;8.73;;;;;;;11.42;100.00;99996.53;5370997;33;33354;-84
2023/12/12 11:41:10;;;;;;;22.00;7.80;;;;;;;11.59;100.00;99999.81;5379879;33;34448;-84
2023/12/12 11:44:17;;;;;;;;;;;;;;;11.90;100.00;99998.63;5362208;33;33763;-84
2023/12/12 11:47:24;;;;;;;17.27;8.32;;;;;;;12.58;100.00;99988.06;5381508;33;34005;-84
2023/12/12 11:50:27;;;;;;;13.88;8.23;;;;;;;13.26;100.00;99988.13;5383307;33;34705;-84
2023/12/12 11:53:42;;;;;;;16.48;7.40;;;;;;;13.23;100.00;99986.63;5383137;33;33654;-84
2023/12/12 11:56:45;;;;;;;15.75;7.18;;;;;;;13.35;93.58;99981.47;5380401;33;34622;-84
2023/12/12 11:59:48;;;;;;;16.10;8.07;;;;;;;13.60;95.35;99976.28;5352748;33;33377;-84
2023/12/12 12:02:51;;;;;;;16.23;7.47;;;;;;;13.93;91.24;99987.13;5369584;33;34009;-84
2023/12/12 12:05:58;;;;;;;6.40;3.40;;;;;;;14.28;90.01;99979.56;5379588;33;34062;-84
2023/12/12 12:09:01;;;;;;;8.90;3.92;;;;;;;14.81;76.60;99975.88;5379465;33;34512;-83
2023/12/12 12:12:08;;;;;;;6.82;3.75;;;;;;;15.98;71.60;99976.38;5377914;33;33773;-83
2023/12/12 12:15:11;;;;;;;21.40;11.60;;;;;;;17.00;57.78;99963.09;5376727;33;33468;-83
2023/12/12 12:18:27;;;;;;;22.00;13.52;;;;;;;17.19;61.03;99968.50;5363113;33;33313;-83
2023/12/12 12:21:30;;;;;;;24.55;13.60;;;;;;;16.71;65.38;99959.28;5382253;33;33701;-87
2023/12/12 12:24:47;;;;;;;25.83;14.50;;;;;;;15.65;69.39;99961.19;5353309;33;33529;-84
2023/12/12 12:27:53;;;;;;;22.30;12.80;;;;;;;15.20;70.69;99963.16;5365516;33;33243;-83
2023/12/12 12:31:00;;;;;;;21.90;11.48;;;;;;;14.77;72.25;99960.25;5378449;33;33496;-83
2023/12/12 12:34:03;;;;;;;22.25;12.07;;;;;;;14.48;74.81;99957.88;5371294;33;34243;-83
2023/12/12 12:37:08;;;;;;;18.77;10.57;;;;;;;14.14;79.88;99959.00;5377165;33;34744;-83
2023/12/12 12:40:11;;;;;;;17.83;9.60;;;;;;;15.32;71.46;99966.81;5350922;33;34429;-83
2023/12/12 12:43:17;;;;;;;18.48;11.05;;;;;;;17.30;62.67;99948.66;5351510;33;33756;-83
2023/12/12 12:46:21;;;;;;;18.10;10.60;;;;;;;18.02;57.38;99942.28;5374902;33;34164;-83
2023/12/12 12:49:24;;;;;;;17.98;10.60;;;;;;;18.93;53.68;99946.13;5366506;33;32786;-83
2023/12/12 12:52:27;;;;;;;14.82;9.95;;;;;;;20.36;48.58;99950.41;5355434;33;33807;-83
2023/12/12 12:55:31;;;;;;;19.50;10.68;;;;;;;19.40;49.81;99948.63;5366660;33;33786;-83
2023/12/12 12:58:34;;;;;;;17.25;11.00;;;;;;;18.74;51.21;99945.47;5368340;33;33458;-83
2023/12/12 13:01:40;;;;;;;20.30;11.65;;;;;;;17.11;56.89;99933.44;5354607;33;33851;-83
2023/12/12 13:04:43;;;;;;;19.17;10.38;;;;;;;15.73;62.08;99929.41;5354787;33;33865;-83
2023/12/12 13:07:47;;;;;;;17.70;10.63;;;;;;;14.46;65.64;99919.31;5361253;33;33906;-83
2023/12/12 13:10:50;;;;;;;18.58;11.38;;;;;;;13.24;72.42;99927.97;5366808;33;33451;-83
2023/12/12 13:13:54;;;;;;;17.75;10.23;;;;;;;12.17;79.59;99919.56;5356334;33;33938;-83
2023/12/12 13:16:57;;;;;;;18.80;10.07;;;;;;;11.15;90.32;99906.53;5375663;33;34144;-83
2023/12/12 13:20:10;;;;;;;18.60;10.27;;;;;;;10.83;93.37;99908.69;5403322;33;35375;-83
2023/12/12 13:23:14;;;;;;;14.23;8.70;;;;;;;10.17;100.00;99914.09;5371916;33;35309;-83
2023/12/12 13:26:17;;;;;;;15.15;8.70;;;;;;;9.83;100.00;99920.03;5386558;33;35290;-82
2023/12/12 13:29:19;;;;;;;19.30;9.52;;;;;;;9.61;100.00;99920.94;5358492;33;36833;-83
2023/12/12 13:32:23;;;;;;;16.50;9.57;;;;;;;9.36;100.00;99915.78;5365840;33;33863;-82
2023/12/12 13:35:25;;;;;;;17.62;9.35;;;;;;;9.05;100.00;99930.13;5365997;33;33800;-83
2023/12/12 13:38:41;;;;;;;18.42;9.13;;;;;;;9.14;100.00;99935.44;5366823;33;34159;-83
2023/12/12 13:41:44;;;;;;;15.52;8.23;;;;;;;8.72;100.00;99934.88;5366043;33;34511;-83
2023/12/12 13:44:48;;;;;;;20.67;8.93;;;;;;;8.42;100.00;99943.72;5347598;33;33891;-82
2023/12/12 13:47:51;;;;;;;16.33;8.63;;;;;;;8.22;100.00;99937.91;5384938;33;34952;-82
2023/12/12 13:50:54;;;;;;;16.20;8.27;;;;;;;8.02;100.00;99949.06;5365835;33;33768;-82
2023/12/12 13:53:57;;;;;;;21.83;7.85;;;;;;;7.93;100.00;99948.25;5364503;33;33391;-82
2023/12/12 13:57:00;;;;;;;18.92;8.95;;;;;;;7.85;100.00;99950.94;5366595;33;34852;-86
2023/12/12 14:00:05;;;;;;;15.93;8.10;;;;;;;7.77;100.00;99956.31;5376321;33;35495;-87
2023/12/12 14:03:11;;;;;;;14.65;7.55;;;;;;;7.84;100.00;99962.66;5366067;33;32648;-83
2023/12/12 14:06:14;;;;;;;16.83;8.45;;;;;;;7.88;100.00;99972.03;5376361;33;34196;-83
2023/12/12 14:09:17;;;;;;;19.90;7.72;;;;;;;7.84;100.00;99973.38;5374243;33;33789;-83
2023/12/12 14:12:20;;;;;;;17.65;8.38;;;;;;;7.83;100.00;99963.66;5384938;33;34182;-83
2023/12/12 14:15:23;;;;;;;19.25;8.38;;;;;;;7.68;100.00;99963.50;5370275;33;33431;-83
2023/12/12 14:18:27;;;;;;;15.13;7.72;;;;;;;7.60;100.00;99963.50;5393953;33;35478;-83
2023/12/12 14:21:31;;;;;;;11.65;7.32;;;;;;;7.57;100.00;99960.34;5384148;33;34337;-83
2023/12/12 14:24:34;;;;;;;19.02;7.85;;;;;;;7.48;100.00;99960.34;5376457;33;35218;-83
2023/12/12 14:27:38;;;;;;;17.12;7.35;;;;;;;7.33;100.00;99958.50;5359654;33;33860;-83
2023/12/12 14:30:41;;;;;;;13.07;7.22;;;;;;;7.24;100.00;99968.38;5377566;33;33810;-83
2023/12/12 14:33:45;;;;;;;17.40;8.00;;;;;;;7.25;100.00;99970.03;5379599;33;33766;-83
2023/12/12 14:36:48;;;;;;;15.30;8.35;;;;;;;7.13;100.00;99966.03;5379266;33;34170;-83
2023/12/12 14:39:52;;;;;;;16.08;7.87;;;;;;;6.95;100.00;99953.63;5363801;33;35265;-83
2023/12/12 14:42:54;;;;;;;16.50;7.82;;;;;;;6.82;100.00;99958.62;5365179;33;33451;-83
2023/12/12 14:46:00;;;;;;;20.80;7.90;;;;;;;6.70;100.00;99958.09;5356038;33;33928;-83
2023/12/12 14:49:05;;;;;;;17.85;7.50;;;;;;;6.59;100.00;99947.69;5358726;33;33720;-83
2023/12/12 14:52:08;;;;;;;13.70;7.15;;;;;;;6.48;100.00;99951.50;5370540;33;34541;-83
2023/12/12 14:55:15;;;;;;;20.08;8.48;;;;;;;6.44;100.00;99952.00;5361621;33;33575;-83
2023/12/12 14:58:18;;;;;;;18.90;7.37;;;;;;;6.43;100.00;99936.94;5382139;33;33857;-83
2023/12/12 15:01:24;;;;;;;15.68;7.57;;;;;;;6.30;100.00;99938.22;5354282;33;33858;-83
2023/12/12 15:04:27;;;;;;;13.30;8.18;;;;;;;6.31;100.00;99947.09;5370192;33;33388;-82
2023/12/12 15:07:30;;;;;;;15.55;7.55;;;;;;;6.28;100.00;99940.22;5351115;33;33551;-83
2023/12/12 15:10:36;;;;;;;16.80;8.23;;;;;;;6.21;100.00;99931.19;5365506;33;34187;-83
2023/12/12 15:13:39;;;;;;;15.13;7.57;;;;;;;6.24;100.00;99922.00;5355943;33;34105;-83
2023/12/12 15:16:43;;;;;;;14.65;7.97;;;;;;;6.16;100.00;99916.63;5360069;33;33236;-82
2023/12/12 15:19:49;;;;;;;15.07;8.43;;;;;;;6.12;100.00;99916.13;5359998;33;145070;-83
2023/12/12 15:22:52;;;;;;;18.23;8.13;;;;;;;6.08;100.00;99923.63;5363090;33;34301;-83
2023/12/12 15:25:55;;;;;;;15.90;8.30;;;;;;;6.00;100.00;99912.88;5350981;33;33805;-83
2023/12/12 15:29:00;;;;;;;14.15;7.53;;;;;;;5.88;100.00;99911.47;5355015;33;34637;-83
2023/12/12 15:32:08;;;;;;;17.02;8.52;;;;;;;5.86;100.00;99900.09;5362421;33;33567;-83
2023/12/12 15:35:12;;;;;;;14.75;8.30;;;;;;;5.77;100.00;99893.03;5358214;33;33610;-83
2023/12/12 15:38:15;;;;;;;15.52;7.70;;;;;;;5.88;100.00;99896.28;5349488;33;33963;-83
2023/12/12 15:41:18;;;;;;;16.70;9.13;;;;;;;5.81;100.00;99895.22;5368725;33;33674;-83
2023/12/12 15:44:21;;;;;;;14.75;8.90;;;;;;;5.79;100.00;99905.25;5376968;33;32752;-83
2023/12/12 15:47:24;;;;;;;19.60;9.25;;;;;;;5.67;100.00;99915.34;5366132;33;34200;-83
2023/12/12 15:50:27;;;;;;;12.70;7.70;;;;;;;5.58;100.00;99910.09;5369226;33;34305;-83
2023/12/12 15:53:30;;;;;;;16.55;9.30;;;;;;;5.57;100.00;99906.59;5353869;33;33640;-83
2023/12/12 15:56:33;;;;;;;17.12;8.18;;;;;;;5.62;100.00;99908.81;5377112;33;34163;-86
2023/12/12 15:59:37;;;;;;;15.05;7.85;;;;;;;5.57;100.00;99895.91;5382051;33;34108;-88
2023/12/12 16:02:41;;;;;;;15.45;8.23;;;;;;;5.46;100.00;99902.34;5367355;33;34126;-86
2023/12/12 16:05:44;;;;;;;17.20;8.35;;;;;;;5.38;100.00;99902.31;5366184;33;33459;-85
2023/12/12 16:08:48;;;;;;;18.20;8.10;;;;;;;5.35;100.00;99907.97;5354127;33;33962;-85
2023/12/12 16:11:53;;;;;;;16.52;8.82;;;;;;;5.31;100.00;99903.09;5379297;33;34006;-85
2023/12/12 16:14:56;;;;;;;24.17;8.40;;;;;;;5.34;100.00;99897.44;5366043;33;33825;-85
2023/12/12 16:18:00;;;;;;;18.62;8.63;;;;;;;5.31;100.00;99903.09;5347370;33;33749;-85
2023/12/12 16:21:03;;;;;;;17.12;8.85;;;;;;;5.29;100.00;99892.53;5384115;33;34916;-85
2023/12/12 16:24:06;;;;;;;17.20;8.85;;;;;;;5.27;100.00;99888.38;5381448;33;33749;-85
2023/12/12 16:27:09;;;;;;;19.17;9.30;;;;;;;5.22;100.00;99886.16;5379229;33;33908;-85
2023/12/12 16:30:15;;;;;;;23.15;9.20;;;;;;;5.21;100.00;99893.34;5359504;33;33779;-85
2023/12/12 16:33:18;;;;;;;16.25;9.02;;;;;;;5.18;100.00;99890.16;5384892;33;34174;-85
2023/12/12 16:36:22;;;;;;;17.02;9.43;;;;;;;5.14;100.00;99888.78;5368084;33;34006;-85
2023/12/12 16:39:24;;;;;;;15.98;8.95;;;;;;;5.02;100.00;99896.19;5367337;33;34286;-85
2023/12/12 16:42:28;;;;;;;15.95;9.05;;;;;;;5.02;100.00;99906.84;5368048;33;33596;-86
2023/12/12 16:45:33;;;;;;;18.52;10.18;;;;;;;4.94;100.00;99901.44;5357210;33;34626;-86
2023/12/12 16:48:36;;;;;;;20.27;9.45;;;;;;;4.88;100.00;99896.72;5368857;33;33347;-86
2023/12/12 16:51:40;;;;;;;28.20;9.95;;;;;;;4.83;100.00;99883.03;5380945;33;34478;-86
2023/12/12 16:54:43;;;;;;;18.23;9.73;;;;;;;4.83;100.00;99883.03;5356312;33;34043;-86
2023/12/12 16:57:46;;;;;;;16.92;9.35;;;;;;;4.87;100.00;99893.22;5368706;33;33659;-86
2023/12/12 17:00:49;;;;;;;18.35;10.40;;;;;;;4.84;100.00;99890.03;5370293;33;34406;-86
